Latest Coastal Weather Observations for Newcastle Nobbys

IDN60701

Issued at 4:41 am EST Tuesday 16 July 2019 (issued every 10 minutes, with the page automatically refreshed every 10 minutes)

About coastal observations | Map of coastal stations | Coastal observations for NSW | Marine services | Other Formats
Station Details ID: 061055 Name: NEWCASTLE NOBBYS SIGNAL STATION AWS Lat: -32.92 Lon: 151.80 Height: 33.0 m
Data from the previous 72 hours. | See also: Recent months at Newcastle Nobbys
Date/Time
EST
Wind Sea
Height
m
Swell Vis
km
Cloud Weather Temp
°C
Press
hPa
Rain since
9am
mm
Dir  Spd
kts
Gust
kts
Height
m
Period
s
Dir
16/04:30am NW 15 19 - - - - - - - 9.5 - 0.0
16/04:00am NW 17 22 - - - - - - - 9.8 - 0.0
16/03:30am NW 18 24 - - - - - - - 9.9 - 0.0
16/03:00am NW 17 23 - - - - - - - 9.9 - 0.0
16/02:30am NW 19 26 - - - - - - - 10.1 - 0.0
16/02:00am NW 21 29 - - - - - - - 10.3 - 0.0
16/01:30am NW 18 25 - - - - - - - 10.4 - 0.0
16/01:00am NW 18 24 - - - - - - - 10.5 - 0.0
16/12:30am NW 17 23 - - - - - - - 10.5 - 0.0
16/12:00am NW 15 20 - - - - - - - 10.8 - 0.0
 
Date/Time
EST
Wind Sea
Height
m
Swell Vis
km
Cloud Weather Temp
°C
Press
hPa
Rain since
9am
mm
Dir  Spd
kts
Gust
kts
Height
m
Period
s
Dir
15/11:30pm NW 14 18 - - - - - - - 11.2 - 0.0
15/11:00pm NW 9 12 - - - - - - - 11.3 - 0.0
15/10:30pm NW 7 11 - - - - - - - 11.9 - 0.0
15/10:00pm NW 6 9 - - - - - - - 11.9 - 0.0
15/09:30pm WNW 8 12 - - - - - - - 12.2 - 0.0
15/09:00pm W 12 15 - - - - - - - 12.9 - 0.0
15/08:30pm W 9 11 - - - - - - - 12.7 - 0.0
15/08:00pm W 7 9 - - - - - - - 12.7 - 0.0
15/07:30pm WNW 6 8 - - - - - - - 12.5 - 0.0
15/07:00pm WNW 4 7 - - - - - - - 13.1 - 0.0
15/06:30pm WSW 4 5 - - - - - - - 14.2 - 0.0
15/06:00pm WSW 3 4 - - - - - - - 14.9 - 0.0
15/05:30pm WSW 3 5 - - - - - - - 15.3 - 0.0
15/05:00pm WSW 7 12 - - - - - - - 16.0 - 0.0
15/04:30pm WSW 6 11 - - - - - - - 16.6 - 0.0
15/04:00pm SW 6 11 - - - - - - - 17.1 - 0.0
15/03:30pm SW 8 13 - - - - - - - 17.2 - 0.0
15/03:00pm SW 9 16 - - - - - - - 16.9 - 0.0
15/02:30pm SW 14 24 - - - - - - - 16.5 - 0.0
15/02:00pm SW 12 19 - - - - - - - 17.2 - 0.0
15/01:30pm SSW 15 24 - - - - - - - 16.4 - 0.0
15/01:00pm SSW 17 23 - - - - - - - 16.0 - 0.0
15/12:35pm SW 15 25 - - - - - - - 16.7 - 0.0
15/12:30pm SW 14 23 - - - - - - - 16.6 - 0.0
15/12:07pm SW 15 26 - - - - - - - 16.0 - 0.0
15/12:00pm SW 16 23 - - - - - - - 16.2 - 0.0
15/11:30am SSW 13 22 - - - - - - - 15.9 - 0.0
15/11:00am WSW 15 26 - - - - - - - 16.0 - 0.0
15/10:57am WSW 15 25 - - - - - - - 16.2 - 0.0
15/10:30am W 19 25 - - - - - - - 16.4 - 0.0
15/10:00am W 16 21 - - - - - - - 15.7 - 0.0
15/09:30am WNW 15 21 - - - - - - - 14.3 - 0.0
15/09:00am WNW 16 21 - - - - - - - 13.5 - 0.0
15/08:30am WNW 16 23 - - - - - - - 12.9 - 0.0
15/08:00am WNW 21 27 - - - - - - - 12.0 - 0.0
15/07:30am WNW 19 27 - - - - - - - 11.6 - 0.0
15/07:00am WNW 16 21 - - - - - - - 11.3 - 0.0
15/06:30am WNW 15 22 - - - - - - - 11.1 - 0.0
15/06:00am WNW 16 21 - - - - - - - 11.0 - 0.0
15/05:30am WNW 19 27 - - - - - - - 10.8 - 0.0
15/05:08am WNW 25 37 - - - - - - - 10.8 - 0.0
15/05:00am NW 26 34 - - - - - - - 10.8 - 0.0
15/04:37am WNW 24 35 - - - - - - - 10.9 - 0.0
15/04:30am WNW 25 35 - - - - - - - 10.9 - 0.0
15/04:00am WNW 30 41 - - - - - - - 11.2 - 0.0
15/03:31am NW 28 40 - - - - - - - 11.2 - 0.0
15/03:30am NW 28 35 - - - - - - - 11.2 - 0.0
15/03:07am NW 23 35 - - - - - - - 10.9 - 0.0
15/03:00am NW 23 33 - - - - - - - 10.9 - 0.0
15/02:30am NW 20 27 - - - - - - - 10.6 - 0.0
15/02:00am NW 19 29 - - - - - - - 10.5 - 0.0
15/01:30am NW 19 27 - - - - - - - 10.4 - 0.0
15/01:00am NW 21 26 - - - - - - - 10.4 - 0.0
15/12:47am NW 20 31 - - - - - - - 10.4 - 0.0
15/12:30am NW 17 25 - - - - - - - 10.4 - 0.0
15/12:00am NW 19 26 - - - - - - - 10.4 - 0.0
 
Date/Time
EST
Wind Sea
Height
m
Swell Vis
km
Cloud Weather Temp
°C
Press
hPa
Rain since
9am
mm
Dir  Spd
kts
Gust
kts
Height
m
Period
s
Dir
14/11:30pm NW 19 27 - - - - - - - 10.5 - 0.0
14/11:00pm NW 21 34 - - - - - - - 10.6 - 0.0
14/10:43pm NW 18 29 - - - - - - - 10.6 - 0.0
14/10:30pm NW 17 24 - - - - - - - 10.7 - 0.0
14/10:00pm WNW 23 32 - - - - - - - 11.0 - 0.0
14/09:30pm NW 24 32 - - - - - - - 11.1 - 0.0
14/09:02pm NW 24 35 - - - - - - - 11.3 - 0.0
14/09:00pm NW 24 33 - - - - - - - 11.3 - 0.0
14/08:30pm NW 19 27 - - - - - - - 11.8 - 0.0
14/08:00pm WNW 19 27 - - - - - - - 12.4 - 0.0
14/07:30pm WNW 16 25 - - - - - - - 12.8 - 0.0
14/07:00pm WNW 13 19 - - - - - - - 13.2 - 0.0
14/06:30pm WNW 15 21 - - - - - - - 13.7 - 0.0
14/06:00pm WNW 15 20 - - - - - - - 14.1 - 0.0
14/05:30pm NW 14 19 - - - - - - - 14.2 - 0.0
14/05:00pm NW 17 24 - - - - - - - 14.5 - 0.0
14/04:43pm NW 17 27 - - - - - - - 15.1 - 0.0
14/04:30pm NW 14 21 - - - - - - - 15.5 - 0.0
14/04:00pm NW 16 24 - - - - - - - 15.8 - 0.0
14/03:30pm NW 21 30 - - - - - - - 15.7 - 0.0
14/03:07pm NW 20 31 - - - - - - - 15.9 - 0.0
14/03:00pm NW 20 27 - - - - - - - 15.9 - 0.0
14/02:50pm NW 21 31 - - - - - - - 15.9 - 0.0
14/02:30pm NW 19 26 - - - - - - - 15.6 - 0.0
14/02:00pm NW 21 30 - - - - - - - 15.4 - 0.0
14/01:30pm NW 18 24 - - - - - - - 14.8 - 0.0
14/01:05pm NW 16 26 - - - - - - - 14.4 - 0.0
14/01:00pm NW 19 27 - - - - - - - 14.4 - 0.0
14/12:30pm WNW 21 27 - - - - - - - 13.9 - 0.0
14/12:00pm WNW 18 24 - - - - - - - 13.6 - 0.0
14/11:30am WNW 17 23 - - - - - - - 12.9 - 0.0
14/11:00am WNW 16 22 - - - - - - - 13.2 - 0.0
14/10:30am WNW 17 21 - - - - - - - 12.6 - 0.0
14/10:00am WNW 15 20 - - - - - - - 12.0 - 0.0
14/09:30am WNW 15 20 - - - - - - - 11.3 - 0.0
14/09:00am WNW 15 19 - - - - - - - 10.3 - 0.0
14/08:30am WNW 14 19 - - - - - - - 9.3 - 0.0
14/08:00am WNW 14 18 - - - - - - - 8.8 - 0.0
14/07:30am NW 12 15 - - - - - - - 8.3 - 0.0
14/07:00am WNW 13 16 - - - - - - - 8.2 - 0.0
14/06:30am WNW 12 17 - - - - - - - 8.4 - 0.0
14/06:00am WNW 10 14 - - - - - - - 8.3 - 0.0
14/05:30am WNW 12 16 - - - - - - - 8.4 - 0.0
14/05:00am WNW 11 14 - - - - - - - 8.5 - 0.0
14/04:30am WNW 8 11 - - - - - - - 8.4 - 0.0
14/04:00am WNW 6 8 - - - - - - - 8.2 - 0.0
14/03:30am NW 4 6 - - - - - - - 8.4 - 0.0
14/03:00am WNW 5 7 - - - - - - - 8.8 - 0.0
14/02:30am WNW 9 12 - - - - - - - 9.0 - 0.0
14/02:00am WNW 6 9 - - - - - - - 9.2 - 0.0
14/01:30am WNW 7 11 - - - - - - - 9.8 - 0.0
14/01:00am WNW 11 16 - - - - - - - 10.4 - 0.0
14/12:30am WNW 12 17 - - - - - - - 10.4 - 0.0
14/12:00am WNW 11 15 - - - - - - - 10.4 - 0.0
 
Date/Time
EST
Wind Sea
Height
m
Swell Vis
km
Cloud Weather Temp
°C
Press
hPa
Rain since
9am
mm
Dir  Spd
kts
Gust
kts
Height
m
Period
s
Dir
13/11:30pm WNW 14 19 - - - - - - - 10.8 - 0.0
13/11:00pm W 17 25 - - - - - - - 11.1 - 0.0
13/10:30pm WNW 21 28 - - - - - - - 11.3 - 0.0
13/10:00pm W 22 27 - - - - - - - 11.5 - 0.0
13/09:30pm WNW 24 32 - - - - - - - 11.7 - 0.0
13/09:10pm WNW 17 28 - - - - - - - 11.7 - 0.0
13/09:00pm WNW 20 27 - - - - - - - 11.8 - 0.0
13/08:30pm WNW 21 27 - - - - - - - 12.1 - 0.0
13/08:00pm W 20 26 - - - - - - - 12.4 - 0.0
13/07:30pm WNW 15 21 - - - - - - - 12.4 - 0.0
13/07:00pm WNW 17 22 - - - - - - - 12.8 - 0.0
13/06:30pm W 17 22 - - - - - - - 13.1 - 0.0
13/06:00pm W 21 27 - - - - - - - 13.5 - 0.0
13/05:30pm W 15 21 - - - - - - - 13.6 - 0.0
13/05:00pm W 22 30 - - - - - - - 14.1 - 0.0
13/04:49pm W 22 32 - - - - - - - 14.5 - 0.0
13/04:30pm WNW 24 31 - - - - - - - 15.0 - 0.0
13/04:16pm W 24 34 - - - - - - - 15.3 - 0.0
13/04:00pm WNW 23 30 - - - - - - - 15.6 - 0.0
13/03:30pm W 23 37 - - - - - - - 16.0 - 0.0
13/03:28pm W 21 33 - - - - - - - 16.2 - 0.0
13/03:00pm W 24 31 - - - - - - - 16.5 - 0.0
13/02:35pm W 26 36 - - - - - - - 16.4 - 0.0
13/02:30pm W 27 36 - - - - - - - 16.3 - 0.0
13/02:00pm W 26 38 - - - - - - - 16.5 - 0.0
13/01:33pm W 24 35 - - - - - - - 16.6 - 0.0
13/01:30pm W 25 32 - - - - - - - 16.7 - 0.0
13/01:00pm WNW 24 34 - - - - - - - 16.4 - 0.0
13/12:42pm WNW 26 37 - - - - - - - 16.5 - 0.0
13/12:30pm WNW 28 36 - - - - - - - 16.3 - 0.0
13/12:14pm WNW 23 36 - - - - - - - 16.2 - 0.0
13/12:00pm WNW 24 32 - - - - - - - 15.8 - 0.0
13/11:31am WNW 26 39 - - - - - - - 16.3 - 0.0
13/11:30am WNW 25 33 - - - - - - - 16.4 - 0.0
13/11:00am WNW 22 32 - - - - - - - 15.4 - 0.0
13/10:55am WNW 20 31 - - - - - - - 15.6 - 0.0
13/10:30am WNW 19 26 - - - - - - - 15.0 - 0.0
13/10:03am WNW 19 30 - - - - - - - 14.6 - 0.0
13/10:00am WNW 18 24 - - - - - - - 14.8 - 0.0
13/09:50am WNW 22 32 - - - - - - - 14.6 - 0.0
13/09:30am W 20 27 - - - - - - - 14.9 - 0.0
13/09:00am WSW 21 27 - - - - - - - 14.7 - 0.0
13/08:57am W 22 30 - - - - - - - 14.9 - 0.0
13/08:30am WNW 22 28 - - - - - - - 16.1 - 0.0
13/08:00am WNW 20 32 - - - - - - - 15.4 - 0.0
13/07:59am WNW 19 32 - - - - - - - 15.4 - 0.0
13/07:30am WNW 19 23 - - - - - - - 15.1 - 0.0
13/07:00am WNW 19 26 - - - - - - - 14.8 - 0.0
13/06:30am WNW 19 27 - - - - - - - 14.9 - 0.0
13/06:00am NW 17 23 - - - - - - - 14.9 - 0.0
13/05:30am NW 16 22 - - - - - - - 15.0 - 0.0
13/05:00am NW 16 26 - - - - - - - 15.0 - 0.0

Other formats

Comma delimited format used in spreadsheet applications
http://www.bom.gov.au/fwo/IDN60701/IDN60701.94774.axf

JavaScript Object Notation format (JSON) in row-major order
http://www.bom.gov.au/fwo/IDN60701/IDN60701.94774.json

Data quality

Most of these data are generated automatically and are frequently updated. Quality checks on data are not normally performed. It is possible for incorrect values to appear. Refer to information at About Latest Weather Observations and please check the disclaimer before using these data.